Terminal Aerodrome Forecast
Issued by NWS Fort Wayne, IN

Home | Current Version | Previous Version | Text Only | Print | Product List | Glossary Off
Versions: 1 2 3 4 5 6 7 8 9 10 11 12 13 14 15 16 17 18 19 20 21 22 23

000
FTUS43 KIWX 051100
TAFFWA
TAF
KFWA 051121Z 0512/0612 06005KT 3SM -SHRA BR SCT020 OVC040
      TEMPO 0512/0515 1 1/2SM TSRA BR OVC020CB
     FM051500 16008KT 5SM -SHRA BR SCT010 OVC020
      TEMPO 0515/0519 2SM SHRA BR OVC010
     FM051900 20010KT 5SM -SHRA BR OVC020
     FM052300 15005KT 6SM BR OVC020
     FM060800 VRB03KT 3SM BR BKN035
      TEMPO 0610/0612 1SM BR=

USA.gov is the U.S. government's official web portal to all federal, state and local government web resources and services.